Weather at Grand Bahama International Airport

Public forecast

Using degrees Celsius for public forecast. Weather courtesy of forecast.io.

Current aviation weather report (METAR) for Grand Bahama International Airport

2024/05/18 22:00 (retrieved 36 minutes ago)

MYGF 182200Z 18010KT 070V160 9999 FEW020 SCT200 31/26 A2995

Aviation forecast (TAF) for Grand Bahama International Airport

2024/05/18 18:06 (retrieved 4 hours ago)

TAF MYGF 181700Z 1818/1918 18005KT 9999 FEW022 FM190000 18010KT 9999 VCTS FEW015CB SCT022 BKN200 FM190800 21010KT 9000 TSRA FEW012CB BKN020 OVC150 FM191200 25010KT 9999 VCTS SCT020 SCT040 BKN200